sensor_id;sensor_type;location;lat;lon;timestamp;P1;durP1;ratioP1;P2;durP2;ratioP2
74577;SDS011;63173;49.086;33.418;2022-09-09T00:00:22;13.45;;;5.55;;
74577;SDS011;63173;49.086;33.418;2022-09-09T00:02:52;11.82;;;5.63;;
74577;SDS011;63173;49.086;33.418;2022-09-09T00:05:27;10.82;;;5.88;;
74577;SDS011;63173;49.086;33.418;2022-09-09T00:08:02;12.90;;;5.70;;
74577;SDS011;63173;49.086;33.418;2022-09-09T00:10:32;11.65;;;5.68;;
74577;SDS011;63173;49.086;33.418;2022-09-09T00:16:12;15.65;;;6.50;;
74577;SDS011;63173;49.086;33.418;2022-09-09T00:27:13;13.50;;;5.55;;
74577;SDS011;63173;49.086;33.418;2022-09-09T00:29:49;11.43;;;6.35;;
74577;SDS011;63173;49.086;33.418;2022-09-09T00:32:20;11.88;;;5.65;;
74577;SDS011;63173;49.086;33.418;2022-09-09T00:34:51;15.05;;;5.97;;
74577;SDS011;63173;49.086;33.418;2022-09-09T00:37:30;10.82;;;5.05;;
74577;SDS011;63173;49.086;33.418;2022-09-09T00:39:58;12.77;;;5.30;;
74577;SDS011;63173;49.086;33.418;2022-09-09T00:47:50;17.50;;;6.53;;
74577;SDS011;63173;49.086;33.418;2022-09-09T00:55:56;13.05;;;5.90;;
74577;SDS011;63173;49.086;33.418;2022-09-09T00:58:35;16.40;;;5.85;;
74577;SDS011;63173;49.086;33.418;2022-09-09T01:01:03;14.55;;;5.63;;
74577;SDS011;63173;49.086;33.418;2022-09-09T01:03:47;10.40;;;4.97;;
74577;SDS011;63173;49.086;33.418;2022-09-09T01:17:11;11.10;;;4.13;;
74577;SDS011;63173;49.086;33.418;2022-09-09T01:19:53;11.35;;;4.70;;
74577;SDS011;63173;49.086;33.418;2022-09-09T01:28:08;10.35;;;4.45;;
74577;SDS011;63173;49.086;33.418;2022-09-09T01:30:39;10.00;;;4.65;;
74577;SDS011;63173;49.086;33.418;2022-09-09T01:33:07;13.63;;;5.28;;
74577;SDS011;63173;49.086;33.418;2022-09-09T01:38:06;10.30;;;4.82;;
74577;SDS011;63173;49.086;33.418;2022-09-09T01:40:32;10.88;;;4.70;;
74577;SDS011;63173;49.086;33.418;2022-09-09T01:42:58;10.85;;;4.88;;
74577;SDS011;63173;49.086;33.418;2022-09-09T01:45:24;9.35;;;4.50;;
74577;SDS011;63173;49.086;33.418;2022-09-09T01:47:50;12.70;;;4.85;;
74577;SDS011;63173;49.086;33.418;2022-09-09T01:50:18;12.38;;;5.32;;
74577;SDS011;63173;49.086;33.418;2022-09-09T01:52:45;11.30;;;5.03;;
74577;SDS011;63173;49.086;33.418;2022-09-09T01:55:14;9.02;;;4.43;;
74577;SDS011;63173;49.086;33.418;2022-09-09T01:57:47;9.55;;;3.60;;
74577;SDS011;63173;49.086;33.418;2022-09-09T02:00:20;11.18;;;4.45;;
74577;SDS011;63173;49.086;33.418;2022-09-09T02:02:53;11.57;;;5.05;;
74577;SDS011;63173;49.086;33.418;2022-09-09T02:07:49;13.45;;;5.47;;
74577;SDS011;63173;49.086;33.418;2022-09-09T02:12:50;12.18;;;4.97;;
74577;SDS011;63173;49.086;33.418;2022-09-09T02:15:26;10.70;;;4.45;;
74577;SDS011;63173;49.086;33.418;2022-09-09T02:17:57;16.25;;;5.03;;
74577;SDS011;63173;49.086;33.418;2022-09-09T02:20:26;8.70;;;4.50;;
74577;SDS011;63173;49.086;33.418;2022-09-09T02:22:57;11.40;;;4.90;;
74577;SDS011;63173;49.086;33.418;2022-09-09T02:25:24;10.48;;;4.40;;
74577;SDS011;63173;49.086;33.418;2022-09-09T02:27:53;13.07;;;4.60;;
74577;SDS011;63173;49.086;33.418;2022-09-09T02:30:18;12.93;;;4.30;;
74577;SDS011;63173;49.086;33.418;2022-09-09T02:32:45;12.35;;;5.40;;
74577;SDS011;63173;49.086;33.418;2022-09-09T02:35:15;10.68;;;4.90;;
74577;SDS011;63173;49.086;33.418;2022-09-09T02:37:45;18.73;;;6.40;;
74577;SDS011;63173;49.086;33.418;2022-09-09T02:40:15;14.85;;;5.32;;
74577;SDS011;63173;49.086;33.418;2022-09-09T02:42:44;12.38;;;5.40;;
74577;SDS011;63173;49.086;33.418;2022-09-09T02:45:12;13.15;;;5.75;;
74577;SDS011;63173;49.086;33.418;2022-09-09T02:47:48;13.88;;;5.43;;
74577;SDS011;63173;49.086;33.418;2022-09-09T02:50:32;10.27;;;4.53;;
74577;SDS011;63173;49.086;33.418;2022-09-09T02:58:06;10.77;;;4.93;;
74577;SDS011;63173;49.086;33.418;2022-09-09T03:00:34;16.52;;;5.13;;
74577;SDS011;63173;49.086;33.418;2022-09-09T03:03:04;11.20;;;4.55;;
74577;SDS011;63173;49.086;33.418;2022-09-09T03:05:30;13.98;;;5.20;;
74577;SDS011;63173;49.086;33.418;2022-09-09T03:07:55;10.60;;;5.00;;
74577;SDS011;63173;49.086;33.418;2022-09-09T03:10:21;8.63;;;4.28;;
74577;SDS011;63173;49.086;33.418;2022-09-09T03:12:46;13.63;;;5.05;;
74577;SDS011;63173;49.086;33.418;2022-09-09T03:15:12;10.07;;;4.72;;
74577;SDS011;63173;49.086;33.418;2022-09-09T03:17:39;9.15;;;4.53;;
74577;SDS011;63173;49.086;33.418;2022-09-09T03:20:06;11.18;;;4.97;;
74577;SDS011;63173;49.086;33.418;2022-09-09T03:22:32;11.23;;;5.13;;
74577;SDS011;63173;49.086;33.418;2022-09-09T03:24:58;10.35;;;4.07;;
74577;SDS011;63173;49.086;33.418;2022-09-09T03:27:23;10.65;;;4.63;;
74577;SDS011;63173;49.086;33.418;2022-09-09T03:29:48;8.73;;;4.18;;
74577;SDS011;63173;49.086;33.418;2022-09-09T03:32:16;9.40;;;4.57;;
74577;SDS011;63173;49.086;33.418;2022-09-09T03:34:42;12.13;;;5.00;;
74577;SDS011;63173;49.086;33.418;2022-09-09T03:37:08;10.57;;;4.72;;
74577;SDS011;63173;49.086;33.418;2022-09-09T03:39:33;9.60;;;4.70;;
74577;SDS011;63173;49.086;33.418;2022-09-09T03:41:59;12.50;;;4.68;;
74577;SDS011;63173;49.086;33.418;2022-09-09T03:44:24;11.10;;;4.82;;
74577;SDS011;63173;49.086;33.418;2022-09-09T03:46:49;12.90;;;5.05;;
74577;SDS011;63173;49.086;33.418;2022-09-09T03:49:15;9.25;;;4.35;;
74577;SDS011;63173;49.086;33.418;2022-09-09T03:51:41;11.65;;;4.90;;
74577;SDS011;63173;49.086;33.418;2022-09-09T03:54:07;12.77;;;4.72;;
74577;SDS011;63173;49.086;33.418;2022-09-09T03:56:35;11.82;;;4.43;;
74577;SDS011;63173;49.086;33.418;2022-09-09T03:59:01;8.10;;;4.10;;
74577;SDS011;63173;49.086;33.418;2022-09-09T04:01:27;10.98;;;4.50;;
74577;SDS011;63173;49.086;33.418;2022-09-09T04:03:53;11.07;;;4.95;;
74577;SDS011;63173;49.086;33.418;2022-09-09T04:06:19;11.43;;;4.47;;
74577;SDS011;63173;49.086;33.418;2022-09-09T04:08:46;10.77;;;4.70;;
74577;SDS011;63173;49.086;33.418;2022-09-09T04:11:13;11.13;;;4.57;;
74577;SDS011;63173;49.086;33.418;2022-09-09T04:13:40;8.60;;;4.55;;
74577;SDS011;63173;49.086;33.418;2022-09-09T04:16:06;11.88;;;4.82;;
74577;SDS011;63173;49.086;33.418;2022-09-09T04:18:35;12.80;;;5.45;;
74577;SDS011;63173;49.086;33.418;2022-09-09T04:21:00;11.55;;;5.68;;
74577;SDS011;63173;49.086;33.418;2022-09-09T04:23:27;14.07;;;5.82;;
74577;SDS011;63173;49.086;33.418;2022-09-09T04:25:56;11.43;;;5.57;;
74577;SDS011;63173;49.086;33.418;2022-09-09T04:28:24;17.48;;;5.22;;
74577;SDS011;63173;49.086;33.418;2022-09-09T04:30:51;11.75;;;5.15;;
74577;SDS011;63173;49.086;33.418;2022-09-09T04:33:17;13.13;;;4.88;;
74577;SDS011;63173;49.086;33.418;2022-09-09T04:35:47;13.75;;;5.68;;
74577;SDS011;63173;49.086;33.418;2022-09-09T04:38:15;11.32;;;5.28;;
74577;SDS011;63173;49.086;33.418;2022-09-09T04:40:42;15.90;;;6.22;;
74577;SDS011;63173;49.086;33.418;2022-09-09T04:43:09;12.48;;;6.00;;
74577;SDS011;63173;49.086;33.418;2022-09-09T04:45:35;15.90;;;6.03;;
74577;SDS011;63173;49.086;33.418;2022-09-09T04:48:01;17.83;;;6.65;;
74577;SDS011;63173;49.086;33.418;2022-09-09T04:50:27;12.55;;;6.47;;
74577;SDS011;63173;49.086;33.418;2022-09-09T04:52:53;11.13;;;5.85;;
74577;SDS011;63173;49.086;33.418;2022-09-09T04:55:19;11.25;;;5.38;;
74577;SDS011;63173;49.086;33.418;2022-09-09T04:57:44;12.98;;;5.75;;
74577;SDS011;63173;49.086;33.418;2022-09-09T05:00:10;13.52;;;5.85;;
74577;SDS011;63173;49.086;33.418;2022-09-09T05:02:39;19.10;;;6.10;;
74577;SDS011;63173;49.086;33.418;2022-09-09T05:05:06;11.80;;;6.13;;
74577;SDS011;63173;49.086;33.418;2022-09-09T05:07:32;11.65;;;5.40;;
74577;SDS011;63173;49.086;33.418;2022-09-09T05:09:57;12.55;;;6.05;;
74577;SDS011;63173;49.086;33.418;2022-09-09T05:12:23;11.75;;;5.13;;
74577;SDS011;63173;49.086;33.418;2022-09-09T05:14:50;12.80;;;4.72;;
74577;SDS011;63173;49.086;33.418;2022-09-09T05:17:16;14.27;;;5.55;;
74577;SDS011;63173;49.086;33.418;2022-09-09T05:19:42;14.15;;;5.32;;
74577;SDS011;63173;49.086;33.418;2022-09-09T05:22:09;13.90;;;5.70;;
74577;SDS011;63173;49.086;33.418;2022-09-09T05:24:36;14.10;;;4.50;;
74577;SDS011;63173;49.086;33.418;2022-09-09T05:27:02;9.60;;;4.25;;
74577;SDS011;63173;49.086;33.418;2022-09-09T05:29:28;12.70;;;4.95;;
74577;SDS011;63173;49.086;33.418;2022-09-09T05:31:53;10.65;;;4.55;;
74577;SDS011;63173;49.086;33.418;2022-09-09T05:34:19;10.75;;;4.13;;
74577;SDS011;63173;49.086;33.418;2022-09-09T05:36:45;15.45;;;4.85;;
74577;SDS011;63173;49.086;33.418;2022-09-09T05:39:11;10.98;;;5.13;;
74577;SDS011;63173;49.086;33.418;2022-09-09T05:41:37;12.48;;;5.05;;
74577;SDS011;63173;49.086;33.418;2022-09-09T05:44:03;11.52;;;5.00;;
74577;SDS011;63173;49.086;33.418;2022-09-09T05:46:28;13.15;;;4.30;;
74577;SDS011;63173;49.086;33.418;2022-09-09T05:48:55;13.30;;;4.72;;
74577;SDS011;63173;49.086;33.418;2022-09-09T05:51:22;14.77;;;4.85;;
74577;SDS011;63173;49.086;33.418;2022-09-09T05:53:50;8.57;;;4.65;;
74577;SDS011;63173;49.086;33.418;2022-09-09T05:56:17;11.57;;;4.38;;
74577;SDS011;63173;49.086;33.418;2022-09-09T05:58:47;12.40;;;4.65;;
74577;SDS011;63173;49.086;33.418;2022-09-09T06:01:15;11.18;;;3.92;;
74577;SDS011;63173;49.086;33.418;2022-09-09T06:03:43;11.40;;;4.55;;
74577;SDS011;63173;49.086;33.418;2022-09-09T06:06:14;15.60;;;4.53;;
74577;SDS011;63173;49.086;33.418;2022-09-09T06:08:42;9.77;;;4.20;;
74577;SDS011;63173;49.086;33.418;2022-09-09T06:11:11;12.15;;;4.22;;
74577;SDS011;63173;49.086;33.418;2022-09-09T06:13:41;9.50;;;3.90;;
74577;SDS011;63173;49.086;33.418;2022-09-09T06:16:11;10.65;;;3.53;;
74577;SDS011;63173;49.086;33.418;2022-09-09T06:18:37;8.32;;;4.05;;
74577;SDS011;63173;49.086;33.418;2022-09-09T06:21:05;10.20;;;4.00;;
74577;SDS011;63173;49.086;33.418;2022-09-09T06:26:09;15.27;;;4.10;;
74577;SDS011;63173;49.086;33.418;2022-09-09T06:28:37;8.73;;;3.42;;
74577;SDS011;63173;49.086;33.418;2022-09-09T06:31:04;9.05;;;3.80;;
74577;SDS011;63173;49.086;33.418;2022-09-09T06:33:34;9.63;;;4.18;;
74577;SDS011;63173;49.086;33.418;2022-09-09T06:36:04;8.88;;;3.40;;
74577;SDS011;63173;49.086;33.418;2022-09-09T06:38:30;7.65;;;3.50;;
74577;SDS011;63173;49.086;33.418;2022-09-09T06:40:56;7.00;;;3.17;;
74577;SDS011;63173;49.086;33.418;2022-09-09T06:43:24;11.48;;;4.07;;
74577;SDS011;63173;49.086;33.418;2022-09-09T06:45:57;6.65;;;3.40;;
74577;SDS011;63173;49.086;33.418;2022-09-09T06:48:24;5.35;;;2.95;;
74577;SDS011;63173;49.086;33.418;2022-09-09T06:51:00;6.80;;;3.33;;
74577;SDS011;63173;49.086;33.418;2022-09-09T06:53:27;6.72;;;2.88;;
74577;SDS011;63173;49.086;33.418;2022-09-09T06:55:53;7.03;;;3.40;;
74577;SDS011;63173;49.086;33.418;2022-09-09T06:58:19;7.22;;;3.08;;
74577;SDS011;63173;49.086;33.418;2022-09-09T07:00:47;8.63;;;3.58;;
74577;SDS011;63173;49.086;33.418;2022-09-09T07:03:13;7.05;;;2.67;;
74577;SDS011;63173;49.086;33.418;2022-09-09T07:05:38;8.60;;;2.95;;
74577;SDS011;63173;49.086;33.418;2022-09-09T07:08:04;8.90;;;2.67;;
74577;SDS011;63173;49.086;33.418;2022-09-09T07:10:30;7.05;;;2.33;;
74577;SDS011;63173;49.086;33.418;2022-09-09T07:12:56;8.52;;;2.38;;
74577;SDS011;63173;49.086;33.418;2022-09-09T07:15:22;10.55;;;2.60;;
74577;SDS011;63173;49.086;33.418;2022-09-09T07:17:48;4.03;;;2.13;;
74577;SDS011;63173;49.086;33.418;2022-09-09T07:20:13;7.93;;;2.30;;
74577;SDS011;63173;49.086;33.418;2022-09-09T07:22:40;5.80;;;2.28;;
74577;SDS011;63173;49.086;33.418;2022-09-09T07:25:06;5.43;;;2.40;;
74577;SDS011;63173;49.086;33.418;2022-09-09T07:27:32;3.50;;;1.70;;
74577;SDS011;63173;49.086;33.418;2022-09-09T07:29:58;6.05;;;2.20;;
74577;SDS011;63173;49.086;33.418;2022-09-09T07:32:23;4.85;;;2.28;;
74577;SDS011;63173;49.086;33.418;2022-09-09T07:34:50;10.63;;;2.40;;
74577;SDS011;63173;49.086;33.418;2022-09-09T07:37:16;5.50;;;1.70;;
74577;SDS011;63173;49.086;33.418;2022-09-09T07:39:42;5.40;;;1.85;;
74577;SDS011;63173;49.086;33.418;2022-09-09T07:42:08;8.45;;;1.80;;
74577;SDS011;63173;49.086;33.418;2022-09-09T07:44:36;8.43;;;1.95;;
74577;SDS011;63173;49.086;33.418;2022-09-09T07:47:04;4.97;;;2.03;;
74577;SDS011;63173;49.086;33.418;2022-09-09T07:49:30;7.22;;;1.73;;
74577;SDS011;63173;49.086;33.418;2022-09-09T07:51:56;2.70;;;1.60;;
74577;SDS011;63173;49.086;33.418;2022-09-09T07:54:22;3.63;;;1.65;;
74577;SDS011;63173;49.086;33.418;2022-09-09T07:56:48;5.55;;;1.92;;
74577;SDS011;63173;49.086;33.418;2022-09-09T07:59:15;3.67;;;1.60;;
74577;SDS011;63173;49.086;33.418;2022-09-09T08:01:50;7.15;;;1.70;;
74577;SDS011;63173;49.086;33.418;2022-09-09T08:04:20;5.05;;;1.73;;
74577;SDS011;63173;49.086;33.418;2022-09-09T08:09:13;4.43;;;1.70;;
74577;SDS011;63173;49.086;33.418;2022-09-09T08:11:40;4.25;;;1.77;;
74577;SDS011;63173;49.086;33.418;2022-09-09T08:14:06;7.10;;;1.83;;
74577;SDS011;63173;49.086;33.418;2022-09-09T08:16:34;4.88;;;1.80;;
74577;SDS011;63173;49.086;33.418;2022-09-09T08:19:01;7.18;;;1.60;;
74577;SDS011;63173;49.086;33.418;2022-09-09T08:21:28;5.45;;;1.60;;
74577;SDS011;63173;49.086;33.418;2022-09-09T08:23:57;10.23;;;2.00;;
74577;SDS011;63173;49.086;33.418;2022-09-09T08:26:25;3.17;;;1.58;;
74577;SDS011;63173;49.086;33.418;2022-09-09T08:28:56;7.50;;;2.00;;
74577;SDS011;63173;49.086;33.418;2022-09-09T08:33:49;4.53;;;1.98;;
74577;SDS011;63173;49.086;33.418;2022-09-09T08:36:16;5.40;;;2.10;;
74577;SDS011;63173;49.086;33.418;2022-09-09T08:38:47;17.25;;;2.20;;
74577;SDS011;63173;49.086;33.418;2022-09-09T08:43:43;4.30;;;1.90;;
74577;SDS011;63173;49.086;33.418;2022-09-09T08:46:36;4.85;;;2.30;;
74577;SDS011;63173;49.086;33.418;2022-09-09T08:49:24;6.32;;;2.42;;
74577;SDS011;63173;49.086;33.418;2022-09-09T08:51:53;4.63;;;1.92;;
74577;SDS011;63173;49.086;33.418;2022-09-09T08:54:20;5.20;;;2.60;;
74577;SDS011;63173;49.086;33.418;2022-09-09T08:56:47;5.65;;;2.20;;
74577;SDS011;63173;49.086;33.418;2022-09-09T08:59:15;6.28;;;2.20;;
74577;SDS011;63173;49.086;33.418;2022-09-09T09:04:38;3.50;;;1.70;;
74577;SDS011;63173;49.086;33.418;2022-09-09T09:07:36;5.18;;;1.98;;
74577;SDS011;63173;49.086;33.418;2022-09-09T09:12:55;10.27;;;2.22;;
74577;SDS011;63173;49.086;33.418;2022-09-09T09:15:25;5.97;;;1.90;;
74577;SDS011;63173;49.086;33.418;2022-09-09T09:17:55;5.05;;;2.60;;
74577;SDS011;63173;49.086;33.418;2022-09-09T09:20:23;8.07;;;2.70;;
74577;SDS011;63173;49.086;33.418;2022-09-09T09:23:04;4.13;;;2.00;;
74577;SDS011;63173;49.086;33.418;2022-09-09T09:25:31;7.47;;;2.50;;
74577;SDS011;63173;49.086;33.418;2022-09-09T09:28:07;4.07;;;2.22;;
74577;SDS011;63173;49.086;33.418;2022-09-09T09:30:44;5.20;;;2.17;;
74577;SDS011;63173;49.086;33.418;2022-09-09T09:36:06;7.88;;;2.45;;
74577;SDS011;63173;49.086;33.418;2022-09-09T09:38:33;4.78;;;1.95;;
74577;SDS011;63173;49.086;33.418;2022-09-09T09:41:00;6.75;;;2.10;;
74577;SDS011;63173;49.086;33.418;2022-09-09T09:43:28;4.20;;;1.90;;
74577;SDS011;63173;49.086;33.418;2022-09-09T09:46:00;6.53;;;1.88;;
74577;SDS011;63173;49.086;33.418;2022-09-09T09:48:28;3.92;;;2.00;;
74577;SDS011;63173;49.086;33.418;2022-09-09T09:50:57;8.18;;;4.82;;
74577;SDS011;63173;49.086;33.418;2022-09-09T09:53:28;3.55;;;2.00;;
74577;SDS011;63173;49.086;33.418;2022-09-09T09:58:26;4.35;;;2.22;;
74577;SDS011;63173;49.086;33.418;2022-09-09T10:00:56;5.50;;;1.85;;
74577;SDS011;63173;49.086;33.418;2022-09-09T10:03:24;9.32;;;2.10;;
74577;SDS011;63173;49.086;33.418;2022-09-09T10:05:49;3.83;;;1.85;;
74577;SDS011;63173;49.086;33.418;2022-09-09T10:08:15;3.75;;;2.20;;
74577;SDS011;63173;49.086;33.418;2022-09-09T10:13:22;5.47;;;2.45;;
74577;SDS011;63173;49.086;33.418;2022-09-09T10:19:10;5.75;;;2.85;;
74577;SDS011;63173;49.086;33.418;2022-09-09T10:33:28;6.15;;;2.50;;
74577;SDS011;63173;49.086;33.418;2022-09-09T10:38:46;6.55;;;3.25;;
74577;SDS011;63173;49.086;33.418;2022-09-09T10:41:36;5.30;;;3.00;;
74577;SDS011;63173;49.086;33.418;2022-09-09T10:46:57;6.50;;;2.90;;
74577;SDS011;63173;49.086;33.418;2022-09-09T10:53:21;8.95;;;2.85;;
74577;SDS011;63173;49.086;33.418;2022-09-09T10:55:52;7.07;;;2.75;;
74577;SDS011;63173;49.086;33.418;2022-09-09T10:58:35;5.13;;;2.70;;
74577;SDS011;63173;49.086;33.418;2022-09-09T11:01:16;8.27;;;2.78;;
74577;SDS011;63173;49.086;33.418;2022-09-09T11:03:42;5.00;;;2.88;;
74577;SDS011;63173;49.086;33.418;2022-09-09T11:06:14;7.47;;;2.65;;
74577;SDS011;63173;49.086;33.418;2022-09-09T11:08:44;6.80;;;2.90;;
74577;SDS011;63173;49.086;33.418;2022-09-09T11:11:16;5.80;;;2.30;;
74577;SDS011;63173;49.086;33.418;2022-09-09T11:13:48;8.15;;;2.50;;
74577;SDS011;63173;49.086;33.418;2022-09-09T11:18:50;7.60;;;2.80;;
74577;SDS011;63173;49.086;33.418;2022-09-09T11:21:27;8.38;;;3.20;;
74577;SDS011;63173;49.086;33.418;2022-09-09T11:23:57;8.07;;;3.30;;
74577;SDS011;63173;49.086;33.418;2022-09-09T11:26:35;11.85;;;3.25;;
74577;SDS011;63173;49.086;33.418;2022-09-09T11:29:44;8.55;;;2.60;;
74577;SDS011;63173;49.086;33.418;2022-09-09T11:32:18;5.57;;;2.33;;
74577;SDS011;63173;49.086;33.418;2022-09-09T11:40:42;8.93;;;2.40;;
74577;SDS011;63173;49.086;33.418;2022-09-09T11:43:10;9.10;;;2.10;;
74577;SDS011;63173;49.086;33.418;2022-09-09T11:45:39;3.97;;;2.03;;
74577;SDS011;63173;49.086;33.418;2022-09-09T11:50:57;4.50;;;2.25;;
74577;SDS011;63173;49.086;33.418;2022-09-09T11:53:24;7.32;;;2.20;;
74577;SDS011;63173;49.086;33.418;2022-09-09T11:56:00;7.07;;;2.20;;
74577;SDS011;63173;49.086;33.418;2022-09-09T11:58:27;7.45;;;2.20;;
74577;SDS011;63173;49.086;33.418;2022-09-09T12:00:58;5.20;;;1.77;;
74577;SDS011;63173;49.086;33.418;2022-09-09T12:09:09;3.60;;;1.88;;
74577;SDS011;63173;49.086;33.418;2022-09-09T12:12:04;6.63;;;2.10;;
74577;SDS011;63173;49.086;33.418;2022-09-09T12:17:21;6.43;;;2.13;;
74577;SDS011;63173;49.086;33.418;2022-09-09T12:28:22;4.13;;;1.90;;
74577;SDS011;63173;49.086;33.418;2022-09-09T12:30:58;3.22;;;1.70;;
74577;SDS011;63173;49.086;33.418;2022-09-09T12:33:34;4.22;;;1.83;;
74577;SDS011;63173;49.086;33.418;2022-09-09T12:36:02;6.22;;;1.73;;
74577;SDS011;63173;49.086;33.418;2022-09-09T12:38:32;3.78;;;2.17;;
74577;SDS011;63173;49.086;33.418;2022-09-09T12:40:59;3.35;;;1.80;;
74577;SDS011;63173;49.086;33.418;2022-09-09T12:43:26;6.47;;;2.20;;
74577;SDS011;63173;49.086;33.418;2022-09-09T12:45:53;4.53;;;1.70;;
74577;SDS011;63173;49.086;33.418;2022-09-09T12:48:45;7.80;;;1.67;;
74577;SDS011;63173;49.086;33.418;2022-09-09T12:51:27;6.47;;;2.00;;
74577;SDS011;63173;49.086;33.418;2022-09-09T12:53:55;5.97;;;2.30;;
74577;SDS011;63173;49.086;33.418;2022-09-09T12:56:25;3.78;;;1.48;;
74577;SDS011;63173;49.086;33.418;2022-09-09T12:58:54;3.08;;;1.45;;
74577;SDS011;63173;49.086;33.418;2022-09-09T13:01:22;4.43;;;1.73;;
74577;SDS011;63173;49.086;33.418;2022-09-09T13:03:53;3.55;;;1.50;;
74577;SDS011;63173;49.086;33.418;2022-09-09T13:06:20;3.60;;;1.67;;
74577;SDS011;63173;49.086;33.418;2022-09-09T13:08:47;4.90;;;1.65;;
74577;SDS011;63173;49.086;33.418;2022-09-09T13:11:14;8.93;;;1.77;;
74577;SDS011;63173;49.086;33.418;2022-09-09T13:13:50;10.40;;;3.38;;
74577;SDS011;63173;49.086;33.418;2022-09-09T13:16:20;4.55;;;1.65;;
74577;SDS011;63173;49.086;33.418;2022-09-09T13:19:17;1.90;;;1.15;;
74577;SDS011;63173;49.086;33.418;2022-09-09T13:21:42;3.13;;;1.48;;
74577;SDS011;63173;49.086;33.418;2022-09-09T13:29:21;8.30;;;2.13;;
74577;SDS011;63173;49.086;33.418;2022-09-09T13:31:53;5.72;;;1.90;;
74577;SDS011;63173;49.086;33.418;2022-09-09T13:34:27;11.57;;;1.80;;
74577;SDS011;63173;49.086;33.418;2022-09-09T13:36:59;4.10;;;1.70;;
74577;SDS011;63173;49.086;33.418;2022-09-09T13:39:30;4.65;;;2.00;;
74577;SDS011;63173;49.086;33.418;2022-09-09T13:41:58;5.13;;;1.70;;
74577;SDS011;63173;49.086;33.418;2022-09-09T13:44:28;5.10;;;1.65;;
74577;SDS011;63173;49.086;33.418;2022-09-09T13:47:06;3.75;;;1.73;;
74577;SDS011;63173;49.086;33.418;2022-09-09T13:49:44;4.35;;;1.50;;
74577;SDS011;63173;49.086;33.418;2022-09-09T13:54:38;4.28;;;1.67;;
74577;SDS011;63173;49.086;33.418;2022-09-09T13:57:04;6.28;;;1.98;;
74577;SDS011;63173;49.086;33.418;2022-09-09T13:59:30;5.05;;;1.20;;
74577;SDS011;63173;49.086;33.418;2022-09-09T14:01:56;5.47;;;1.30;;
74577;SDS011;63173;49.086;33.418;2022-09-09T14:04:22;6.55;;;2.17;;
74577;SDS011;63173;49.086;33.418;2022-09-09T14:06:48;3.70;;;1.65;;
74577;SDS011;63173;49.086;33.418;2022-09-09T14:09:15;4.22;;;1.30;;
74577;SDS011;63173;49.086;33.418;2022-09-09T14:11:42;5.50;;;1.90;;
74577;SDS011;63173;49.086;33.418;2022-09-09T14:14:08;8.05;;;2.28;;
74577;SDS011;63173;49.086;33.418;2022-09-09T14:16:34;6.25;;;1.92;;
74577;SDS011;63173;49.086;33.418;2022-09-09T14:18:59;10.35;;;2.10;;
74577;SDS011;63173;49.086;33.418;2022-09-09T14:21:26;6.00;;;2.20;;
74577;SDS011;63173;49.086;33.418;2022-09-09T14:23:52;3.88;;;1.90;;
74577;SDS011;63173;49.086;33.418;2022-09-09T14:26:18;3.80;;;1.60;;
74577;SDS011;63173;49.086;33.418;2022-09-09T14:28:46;4.55;;;1.92;;
74577;SDS011;63173;49.086;33.418;2022-09-09T14:31:12;5.25;;;1.83;;
74577;SDS011;63173;49.086;33.418;2022-09-09T14:33:38;5.43;;;1.95;;
74577;SDS011;63173;49.086;33.418;2022-09-09T14:36:04;7.32;;;2.00;;
74577;SDS011;63173;49.086;33.418;2022-09-09T14:38:34;4.10;;;1.77;;
74577;SDS011;63173;49.086;33.418;2022-09-09T14:41:11;7.40;;;2.30;;
74577;SDS011;63173;49.086;33.418;2022-09-09T14:43:41;11.05;;;2.85;;
74577;SDS011;63173;49.086;33.418;2022-09-09T14:46:08;7.53;;;2.47;;
74577;SDS011;63173;49.086;33.418;2022-09-09T14:48:35;5.28;;;2.30;;
74577;SDS011;63173;49.086;33.418;2022-09-09T14:51:05;6.90;;;2.20;;
74577;SDS011;63173;49.086;33.418;2022-09-09T14:53:35;4.55;;;1.75;;
74577;SDS011;63173;49.086;33.418;2022-09-09T14:56:12;6.63;;;2.20;;
74577;SDS011;63173;49.086;33.418;2022-09-09T14:58:39;11.88;;;4.05;;
74577;SDS011;63173;49.086;33.418;2022-09-09T15:01:07;6.93;;;2.70;;
74577;SDS011;63173;49.086;33.418;2022-09-09T15:03:37;8.75;;;3.15;;
74577;SDS011;63173;49.086;33.418;2022-09-09T15:08:33;9.20;;;3.33;;
74577;SDS011;63173;49.086;33.418;2022-09-09T15:11:00;7.95;;;2.70;;
74577;SDS011;63173;49.086;33.418;2022-09-09T15:13:26;11.02;;;3.00;;
74577;SDS011;63173;49.086;33.418;2022-09-09T15:15:52;6.45;;;2.13;;
74577;SDS011;63173;49.086;33.418;2022-09-09T15:18:19;6.93;;;2.45;;
74577;SDS011;63173;49.086;33.418;2022-09-09T15:20:45;8.15;;;3.17;;
74577;SDS011;63173;49.086;33.418;2022-09-09T15:23:11;11.65;;;2.47;;
74577;SDS011;63173;49.086;33.418;2022-09-09T15:25:37;11.25;;;3.65;;
74577;SDS011;63173;49.086;33.418;2022-09-09T15:28:03;16.65;;;3.38;;
74577;SDS011;63173;49.086;33.418;2022-09-09T15:30:28;10.48;;;3.90;;
74577;SDS011;63173;49.086;33.418;2022-09-09T15:32:54;9.98;;;3.35;;
74577;SDS011;63173;49.086;33.418;2022-09-09T15:35:19;11.77;;;2.92;;
74577;SDS011;63173;49.086;33.418;2022-09-09T15:37:45;7.57;;;3.10;;
74577;SDS011;63173;49.086;33.418;2022-09-09T15:40:11;12.20;;;4.10;;
74577;SDS011;63173;49.086;33.418;2022-09-09T15:42:36;11.90;;;4.20;;
74577;SDS011;63173;49.086;33.418;2022-09-09T15:45:02;10.88;;;3.38;;
74577;SDS011;63173;49.086;33.418;2022-09-09T15:47:30;7.82;;;3.45;;
74577;SDS011;63173;49.086;33.418;2022-09-09T15:49:55;9.18;;;3.17;;
74577;SDS011;63173;49.086;33.418;2022-09-09T15:52:20;9.13;;;3.05;;
74577;SDS011;63173;49.086;33.418;2022-09-09T15:54:46;7.85;;;2.47;;
74577;SDS011;63173;49.086;33.418;2022-09-09T15:57:12;9.98;;;3.22;;
74577;SDS011;63173;49.086;33.418;2022-09-09T15:59:38;8.48;;;2.53;;
74577;SDS011;63173;49.086;33.418;2022-09-09T16:02:05;8.93;;;2.00;;
74577;SDS011;63173;49.086;33.418;2022-09-09T16:04:31;5.00;;;2.40;;
74577;SDS011;63173;49.086;33.418;2022-09-09T16:07:00;7.82;;;2.50;;
74577;SDS011;63173;49.086;33.418;2022-09-09T16:09:30;4.00;;;1.90;;
74577;SDS011;63173;49.086;33.418;2022-09-09T16:11:57;6.32;;;2.22;;
74577;SDS011;63173;49.086;33.418;2022-09-09T16:14:23;5.43;;;2.03;;
74577;SDS011;63173;49.086;33.418;2022-09-09T16:16:50;5.55;;;2.58;;
74577;SDS011;63173;49.086;33.418;2022-09-09T16:19:15;10.68;;;3.00;;
74577;SDS011;63173;49.086;33.418;2022-09-09T16:21:42;7.05;;;2.63;;
74577;SDS011;63173;49.086;33.418;2022-09-09T16:24:10;9.82;;;3.10;;
74577;SDS011;63173;49.086;33.418;2022-09-09T16:26:40;9.85;;;2.88;;
74577;SDS011;63173;49.086;33.418;2022-09-09T16:29:11;15.43;;;3.17;;
74577;SDS011;63173;49.086;33.418;2022-09-09T16:31:38;11.70;;;3.25;;
74577;SDS011;63173;49.086;33.418;2022-09-09T16:34:05;8.32;;;3.58;;
74577;SDS011;63173;49.086;33.418;2022-09-09T16:36:32;11.60;;;2.78;;
74577;SDS011;63173;49.086;33.418;2022-09-09T16:38:59;8.93;;;3.28;;
74577;SDS011;63173;49.086;33.418;2022-09-09T16:41:27;7.07;;;2.90;;
74577;SDS011;63173;49.086;33.418;2022-09-09T16:43:54;9.88;;;3.13;;
74577;SDS011;63173;49.086;33.418;2022-09-09T16:46:24;9.57;;;2.17;;
74577;SDS011;63173;49.086;33.418;2022-09-09T16:48:52;8.55;;;2.40;;
74577;SDS011;63173;49.086;33.418;2022-09-09T16:51:21;8.38;;;2.50;;
74577;SDS011;63173;49.086;33.418;2022-09-09T16:53:51;8.32;;;2.33;;
74577;SDS011;63173;49.086;33.418;2022-09-09T16:56:24;6.05;;;2.40;;